Saddle River, New Jersey
Current Conditions -  °F | °C
As of 11:51 AM on Saturday 20 Dec 2014 (Local Time) from KTEB Reporting Station
Overcast Overcast  
Wind Chill: 26°   Ceiling: 3000
Heat Index: 32°   Visibility: 10mi
Dew Point: 19°   Wind: 6mph
Humidity: 59%   Direction: 290°WNW
Pressure: 30.29"   Gusts: NA
Location:  41.03°N, 74.1°W
Report Text: KTEB 201651Z 29005KT 10SM OVC030 00/M07 A3029 RMK AO2 SLP255 T00001072
Loading
Personal Weather Stations






























Interactive Weather Map New forecast layout! Learn more

10-Day Weather Forecast

Advertisements
Track Severe Weather on mobile